createdAt,value
2023-05-05T00:00:13.758Z,15.8039
2023-05-05T00:01:14.809Z,15.7569
2023-05-05T00:02:15.424Z,15.7233
2023-05-05T00:03:16.730Z,15.6878
2023-05-05T00:04:18.039Z,15.6855
2023-05-05T00:05:18.293Z,15.6600
2023-05-05T00:06:18.840Z,15.6951
2023-05-05T00:07:19.366Z,15.6970
2023-05-05T00:08:19.678Z,15.6687
2023-05-05T00:09:20.233Z,15.6425
2023-05-05T00:10:21.108Z,15.6333
2023-05-05T00:11:22.177Z,15.6152
2023-05-05T00:12:22.752Z,15.5987
2023-05-05T00:13:23.906Z,15.5690
2023-05-05T00:14:24.702Z,15.5283
2023-05-05T00:15:25.265Z,15.4837
2023-05-05T00:16:26.065Z,15.4270
2023-05-05T00:17:26.985Z,15.3881
2023-05-05T00:18:28.135Z,15.3513
2023-05-05T00:19:28.868Z,15.2552
2023-05-05T00:20:30.070Z,15.2221
2023-05-05T00:21:30.842Z,15.1724
2023-05-05T00:22:31.664Z,15.1290
2023-05-05T00:23:32.228Z,15.0895
2023-05-05T00:24:32.881Z,15.0407
2023-05-05T00:25:33.534Z,14.9901
2023-05-05T00:26:34.265Z,14.9534
2023-05-05T00:27:35.079Z,14.9171
2023-05-05T00:28:35.635Z,14.8774
2023-05-05T00:29:36.427Z,14.8403
2023-05-05T00:30:37.330Z,14.8076
2023-05-05T00:31:38.190Z,14.8116
2023-05-05T00:32:39.155Z,14.8134
2023-05-05T00:33:39.786Z,14.7876
2023-05-05T00:34:40.648Z,14.7709
2023-05-05T00:35:41.558Z,14.7728
2023-05-05T00:36:43.289Z,14.7614
2023-05-05T00:37:43.320Z,14.7593
2023-05-05T00:38:44.078Z,14.7616
2023-05-05T00:39:45.009Z,14.7833
2023-05-05T00:40:45.929Z,14.8094
2023-05-05T00:41:46.637Z,14.8183
2023-05-05T00:42:47.538Z,14.8319
2023-05-05T00:43:48.382Z,14.8494
2023-05-05T00:44:48.970Z,14.8449
2023-05-05T00:45:49.610Z,14.8708
2023-05-05T00:46:50.643Z,14.8790
2023-05-05T00:47:51.825Z,14.8841
2023-05-05T00:48:53.918Z,14.8822
2023-05-05T00:49:53.577Z,14.8744
2023-05-05T00:50:54.483Z,14.8591
2023-05-05T00:51:55.331Z,14.8341
2023-05-05T00:52:56.016Z,14.8198
2023-05-05T00:53:56.963Z,14.7865
2023-05-05T00:54:57.617Z,14.7563
2023-05-05T00:55:58.344Z,14.7178
2023-05-05T00:56:59.269Z,14.6993
2023-05-05T00:57:59.882Z,14.6903
2023-05-05T00:59:01.470Z,14.6763
2023-05-05T01:00:01.207Z,14.6836
2023-05-05T01:01:01.929Z,14.6765
2023-05-05T01:02:02.796Z,14.6499
2023-05-05T01:04:22.425Z,14.6229
2023-05-05T01:05:23.413Z,14.6012
2023-05-05T01:11:30.482Z,14.8169
2023-05-05T01:12:31.813Z,14.8993
2023-05-05T01:18:37.687Z,15.2026
2023-05-05T01:19:38.273Z,15.2011
2023-05-05T01:20:39.394Z,15.2383
2023-05-05T01:21:39.720Z,15.2463
2023-05-05T01:22:40.871Z,15.2533
2023-05-05T01:23:41.694Z,15.2527
2023-05-05T01:24:43.325Z,15.2345
2023-05-05T01:25:43.449Z,15.2015
2023-05-05T01:26:44.260Z,15.1748
2023-05-05T01:27:45.045Z,15.1382
2023-05-05T01:30:47.184Z,14.9839
2023-05-05T01:31:48.303Z,14.8772
2023-05-05T01:36:51.868Z,14.5834
2023-05-05T01:37:51.911Z,14.5509
2023-05-05T01:38:51.981Z,14.5144
2023-05-05T01:39:52.430Z,14.4896
2023-05-05T01:40:53.636Z,14.4568
2023-05-05T01:41:55.793Z,14.4352
2023-05-05T01:42:58.013Z,14.3964
2023-05-05T01:44:00.275Z,14.3594
2023-05-05T01:45:02.319Z,14.3310
2023-05-05T01:46:03.449Z,14.2902
2023-05-05T01:47:04.491Z,14.2412
2023-05-05T01:54:15.317Z,14.0928
2023-05-05T02:00:19.223Z,14.0763
2023-05-05T02:01:19.766Z,14.0702
2023-05-05T02:03:20.976Z,14.0080
2023-05-05T02:04:22.030Z,13.9791
2023-05-05T02:05:22.887Z,13.9611
2023-05-05T02:06:22.973Z,13.9587
2023-05-05T02:07:24.647Z,13.9515
2023-05-05T02:08:24.344Z,13.9544
2023-05-05T02:09:25.332Z,13.9594
2023-05-05T02:10:26.071Z,13.9980
2023-05-05T02:11:26.115Z,14.0382
2023-05-05T02:12:29.661Z,14.1206
2023-05-05T02:13:26.841Z,14.2609
2023-05-05T02:14:27.137Z,14.3007
2023-05-05T02:15:27.952Z,14.3684
2023-05-05T02:16:29.119Z,14.4304
2023-05-05T02:17:30.086Z,14.4530
2023-05-05T02:18:30.849Z,14.4855
2023-05-05T02:19:31.681Z,14.5127
2023-05-05T02:20:31.770Z,14.5193
2023-05-05T02:21:32.693Z,14.5522
2023-05-05T02:22:33.552Z,14.5911
2023-05-05T02:23:34.311Z,14.6097
2023-05-05T02:24:35.104Z,14.6658
2023-05-05T02:25:36.399Z,14.7412
2023-05-05T02:26:37.280Z,14.7970
2023-05-05T02:27:38.256Z,14.8351
2023-05-05T02:28:38.938Z,14.8434
2023-05-05T02:29:40.241Z,14.8603
2023-05-05T02:30:40.637Z,14.8740
2023-05-05T02:31:41.670Z,14.8804
2023-05-05T02:32:42.927Z,14.8796
2023-05-05T02:33:43.828Z,14.8667
2023-05-05T02:34:44.540Z,14.8444
2023-05-05T02:35:45.493Z,14.8306
2023-05-05T02:36:46.260Z,14.8166
2023-05-05T02:37:47.122Z,14.7957
2023-05-05T02:38:48.120Z,14.7809
2023-05-05T02:39:48.751Z,14.7532
2023-05-05T02:42:50.067Z,14.6257
2023-05-05T02:44:50.394Z,14.5328
2023-05-05T02:45:51.380Z,14.4577
2023-05-05T02:46:52.534Z,14.4134
2023-05-05T02:47:53.717Z,14.3568
2023-05-05T02:48:54.204Z,14.2936
2023-05-05T02:49:55.409Z,14.2097
2023-05-05T02:50:55.371Z,14.1616
2023-05-05T02:51:56.000Z,14.1324
2023-05-05T02:52:56.690Z,14.1032
2023-05-05T02:53:57.554Z,14.0633
2023-05-05T02:54:57.921Z,14.0256
2023-05-05T02:55:58.365Z,14.0034
2023-05-05T02:56:59.541Z,14.0007
2023-05-05T02:58:00.426Z,14.0053
2023-05-05T02:59:01.268Z,14.0161
2023-05-05T03:00:01.321Z,14.0173
2023-05-05T03:01:01.985Z,14.0273
2023-05-05T03:02:02.217Z,14.0300
2023-05-05T03:03:03.594Z,14.0288
2023-05-05T03:04:03.775Z,14.0198
2023-05-05T03:05:04.643Z,14.0151
2023-05-05T03:06:05.548Z,14.0009
2023-05-05T03:07:06.455Z,13.9832
2023-05-05T03:08:07.354Z,13.9603
2023-05-05T03:09:08.227Z,13.9415
2023-05-05T03:10:09.444Z,13.9131
2023-05-05T03:11:09.268Z,13.9034
2023-05-05T03:12:10.065Z,13.8949
2023-05-05T03:13:11.368Z,13.8869
2023-05-05T03:14:12.154Z,13.8815
2023-05-05T03:15:13.087Z,13.8631
2023-05-05T03:16:14.132Z,13.8432
2023-05-05T03:17:15.057Z,13.8375
2023-05-05T03:18:16.398Z,13.8218
2023-05-05T03:19:17.092Z,13.8129
2023-05-05T03:20:17.404Z,13.7943
2023-05-05T03:21:18.445Z,13.8018
2023-05-05T03:22:19.158Z,13.7929
2023-05-05T03:23:20.355Z,13.8037
2023-05-05T03:24:20.224Z,13.7967
2023-05-05T03:25:20.991Z,13.8120
2023-05-05T03:26:21.659Z,13.8267
2023-05-05T03:27:22.544Z,13.8486
2023-05-05T03:28:23.732Z,13.8658
2023-05-05T03:29:23.950Z,13.8786
2023-05-05T03:30:24.001Z,13.8897
2023-05-05T03:31:24.489Z,13.8938
2023-05-05T03:34:17.766Z,13.9082
2023-05-05T03:35:18.643Z,13.9132
2023-05-05T03:36:19.471Z,13.9151
2023-05-05T03:37:20.350Z,13.9388
2023-05-05T03:38:21.217Z,13.9562
2023-05-05T03:39:21.904Z,13.9759
2023-05-05T03:40:29.618Z,13.9816
2023-05-05T03:41:23.516Z,14.0025
2023-05-05T03:42:24.155Z,14.0013
2023-05-05T03:43:24.974Z,14.0070
2023-05-05T03:44:25.709Z,14.0064
2023-05-05T03:45:26.659Z,14.0073
2023-05-05T03:46:27.674Z,14.0088
2023-05-05T03:47:29.623Z,14.0067
2023-05-05T03:49:30.320Z,14.0020
2023-05-05T03:50:30.466Z,13.9999
2023-05-05T03:51:31.023Z,13.9964
2023-05-05T03:52:31.553Z,13.9957
2023-05-05T03:53:32.377Z,13.9991
2023-05-05T03:54:33.671Z,13.9870
2023-05-05T03:55:34.699Z,13.9790
2023-05-05T03:56:35.978Z,13.9770
2023-05-05T03:57:36.757Z,13.9660
2023-05-05T03:58:37.256Z,13.9572
2023-05-05T03:59:38.267Z,13.9421
2023-05-05T04:00:39.603Z,13.9279
2023-05-05T04:01:40.527Z,13.9150
2023-05-05T04:02:41.346Z,13.8925
2023-05-05T04:03:43.329Z,13.8732
2023-05-05T04:04:44.702Z,13.8481
2023-05-05T04:05:44.846Z,13.8269
2023-05-05T04:06:46.813Z,13.8071
2023-05-05T04:07:47.890Z,13.7831
2023-05-05T04:08:48.718Z,13.7579
2023-05-05T04:09:49.600Z,13.7360
2023-05-05T04:10:49.645Z,13.7235
2023-05-05T04:11:49.859Z,13.7107
2023-05-05T04:12:51.031Z,13.6867
2023-05-05T04:13:52.053Z,13.6690
2023-05-05T04:14:52.689Z,13.6430
2023-05-05T04:16:53.321Z,13.6123
2023-05-05T04:17:53.565Z,13.5998
2023-05-05T04:18:54.538Z,13.5782
2023-05-05T04:19:55.374Z,13.5587
2023-05-05T04:20:55.408Z,13.5341
2023-05-05T04:21:55.901Z,13.5190
2023-05-05T04:22:58.248Z,13.5011
2023-05-05T04:23:59.144Z,13.4765
2023-05-05T04:25:00.301Z,13.4510
2023-05-05T04:26:01.135Z,13.4301
2023-05-05T04:27:02.055Z,13.4057
2023-05-05T04:29:02.815Z,13.3775
2023-05-05T04:30:03.854Z,13.3745
2023-05-05T04:32:04.459Z,13.3418
2023-05-05T04:33:04.612Z,13.3148
2023-05-05T04:34:05.408Z,13.3091
2023-05-05T04:35:06.431Z,13.2939
2023-05-05T04:36:07.472Z,13.3049
2023-05-05T04:37:08.304Z,13.3041
2023-05-05T04:38:09.365Z,13.3123
2023-05-05T04:39:10.522Z,13.3404
2023-05-05T04:40:11.352Z,13.3511
2023-05-05T04:41:12.338Z,13.3783
2023-05-05T04:42:12.533Z,13.3946
2023-05-05T04:43:13.500Z,13.4274
2023-05-05T04:44:14.533Z,13.4581
2023-05-05T04:45:15.295Z,13.4699
2023-05-05T04:46:16.326Z,13.4831
2023-05-05T04:47:16.302Z,13.5039
2023-05-05T04:48:16.343Z,13.5185
2023-05-05T04:49:17.514Z,13.5260
2023-05-05T04:50:17.501Z,13.5335
2023-05-05T04:51:18.456Z,13.5342
2023-05-05T04:52:19.329Z,13.5290
2023-05-05T04:53:20.187Z,13.5207
2023-05-05T04:54:21.201Z,13.5148
2023-05-05T04:55:22.003Z,13.4956
2023-05-05T04:56:22.979Z,13.4873
2023-05-05T04:57:24.016Z,13.4640
2023-05-05T04:58:24.893Z,13.4496
2023-05-05T04:59:25.887Z,13.4211
2023-05-05T05:00:26.668Z,13.3866
2023-05-05T05:01:27.860Z,13.3747
2023-05-05T05:02:28.286Z,13.3659
2023-05-05T05:03:28.489Z,13.3613
2023-05-05T05:04:28.811Z,13.3637
2023-05-05T05:05:29.789Z,13.3520
2023-05-05T05:06:30.777Z,13.3564
2023-05-05T05:07:30.818Z,13.3675
2023-05-05T05:08:31.680Z,13.3820
2023-05-05T05:09:32.633Z,13.3976
2023-05-05T05:10:33.600Z,13.4015
2023-05-05T05:11:34.967Z,13.4034
2023-05-05T05:12:35.115Z,13.4120
2023-05-05T05:13:35.407Z,13.4438
2023-05-05T05:14:36.423Z,13.4521
2023-05-05T05:15:36.812Z,13.4658
2023-05-05T05:16:37.094Z,13.4787
2023-05-05T05:17:38.197Z,13.4851
2023-05-05T05:18:39.662Z,13.4899
2023-05-05T05:19:40.079Z,13.4819
2023-05-05T05:20:40.756Z,13.4647
2023-05-05T05:21:40.891Z,13.4513
2023-05-05T05:22:41.519Z,13.4458
2023-05-05T05:23:42.080Z,13.4493
2023-05-05T05:24:43.231Z,13.4415
2023-05-05T05:25:43.315Z,13.4466
2023-05-05T05:26:44.607Z,13.4686
2023-05-05T05:27:50.172Z,13.4986
2023-05-05T05:28:45.870Z,13.5139
2023-05-05T05:29:46.748Z,13.5414
2023-05-05T05:30:47.486Z,13.5765
2023-05-05T05:31:47.478Z,13.6181
2023-05-05T05:32:49.102Z,13.6416
2023-05-05T05:33:49.085Z,13.6648
2023-05-05T05:34:49.925Z,13.6844
2023-05-05T05:35:50.065Z,13.7048
2023-05-05T05:36:51.069Z,13.7377
2023-05-05T05:37:51.107Z,13.7560
2023-05-05T05:38:52.396Z,13.7767
2023-05-05T05:39:53.443Z,13.7751
2023-05-05T05:40:53.976Z,13.7785
2023-05-05T05:41:54.886Z,13.7708
2023-05-05T05:42:56.265Z,13.7860
2023-05-05T05:43:57.318Z,13.8049
2023-05-05T05:44:58.147Z,13.8247
2023-05-05T05:45:58.317Z,13.8463
2023-05-05T05:46:58.909Z,13.8765
2023-05-05T05:48:00.045Z,13.9102
2023-05-05T05:49:00.019Z,13.9426
2023-05-05T05:50:01.229Z,13.9750
2023-05-05T05:51:02.448Z,14.0138
2023-05-05T05:52:02.290Z,14.0317
2023-05-05T05:53:02.952Z,14.0476
2023-05-05T05:54:04.159Z,14.0841
2023-05-05T05:55:05.090Z,14.1719
2023-05-05T05:56:06.301Z,14.2233
2023-05-05T05:57:07.597Z,14.2811
2023-05-05T05:58:08.484Z,14.3330
2023-05-05T05:59:09.537Z,14.3929
2023-05-05T06:00:11.662Z,14.4290
2023-05-05T06:01:12.505Z,14.4639
2023-05-05T06:02:13.885Z,14.5114
2023-05-05T06:03:14.876Z,14.5599
2023-05-05T06:04:15.955Z,14.6323
2023-05-05T06:05:15.887Z,14.6863
2023-05-05T06:06:16.762Z,14.7150
2023-05-05T06:07:17.740Z,14.7577
2023-05-05T06:08:19.070Z,14.7707
2023-05-05T06:09:19.936Z,14.7862
2023-05-05T06:10:28.047Z,14.8060
2023-05-05T06:11:24.873Z,14.8155
2023-05-05T06:12:25.703Z,14.8231
2023-05-05T06:13:25.867Z,14.8407
2023-05-05T06:14:26.516Z,14.8572
2023-05-05T06:15:27.650Z,14.8711
2023-05-05T06:16:29.020Z,14.8820
2023-05-05T06:17:30.046Z,14.9359
2023-05-05T06:18:30.854Z,14.9835
2023-05-05T06:19:31.693Z,15.0253
2023-05-05T06:20:32.681Z,15.0541
2023-05-05T06:21:33.701Z,15.0883
2023-05-05T06:22:34.645Z,15.1404
2023-05-05T06:23:35.629Z,15.1865
2023-05-05T06:24:36.636Z,15.2319
2023-05-05T06:25:37.544Z,15.2582
2023-05-05T06:26:38.547Z,15.3393
2023-05-05T06:27:39.493Z,15.4037
2023-05-05T06:28:40.669Z,15.4641
2023-05-05T06:29:41.798Z,15.5327
2023-05-05T06:30:43.049Z,15.5784
2023-05-05T06:31:44.327Z,15.6182
2023-05-05T06:32:45.480Z,15.6624
2023-05-05T06:33:46.525Z,15.7109
2023-05-05T06:34:46.632Z,15.7503
2023-05-05T06:35:47.824Z,15.7699
2023-05-05T06:36:48.214Z,15.7927
2023-05-05T06:37:50.259Z,15.8134
2023-05-05T06:40:50.534Z,15.8941
2023-05-05T06:41:51.882Z,15.8991
2023-05-05T06:42:53.050Z,15.9327
2023-05-05T06:43:54.549Z,15.9844
2023-05-05T06:44:55.003Z,16.0078
2023-05-05T06:45:56.191Z,16.0555
2023-05-05T06:46:56.219Z,16.1010
2023-05-05T06:47:57.643Z,16.1641
2023-05-05T06:48:57.597Z,16.1834
2023-05-05T06:49:58.717Z,16.2164
2023-05-05T06:50:59.417Z,16.2334
2023-05-05T06:52:00.097Z,16.3139
2023-05-05T06:53:01.109Z,16.3569
2023-05-05T06:54:02.331Z,16.4053
2023-05-05T06:55:02.984Z,16.4546
2023-05-05T06:56:04.124Z,16.4405
2023-05-05T06:57:04.269Z,16.4769
2023-05-05T06:58:05.230Z,16.4978
2023-05-05T06:59:06.426Z,16.5649
2023-05-05T07:00:07.832Z,16.5854
2023-05-05T07:01:08.111Z,16.5981
2023-05-05T07:02:08.184Z,16.5141
2023-05-05T07:03:08.302Z,16.5366
2023-05-05T07:04:08.549Z,16.4994
2023-05-05T07:05:09.648Z,16.4465
2023-05-05T07:06:10.747Z,16.4568
2023-05-05T07:07:12.012Z,16.4291
2023-05-05T07:08:13.085Z,16.4352
2023-05-05T07:09:15.755Z,16.4695
2023-05-05T07:10:15.653Z,16.4845
2023-05-05T07:11:16.422Z,16.4841
2023-05-05T07:12:17.622Z,16.4997
2023-05-05T07:13:19.001Z,16.5086
2023-05-05T07:14:19.041Z,16.5311
2023-05-05T07:15:29.096Z,16.5303
2023-05-05T07:16:24.623Z,16.5469
2023-05-05T07:17:25.864Z,16.5860
2023-05-05T07:18:25.872Z,16.6403
2023-05-05T07:19:26.770Z,16.6493
2023-05-05T07:20:27.922Z,16.7007
2023-05-05T07:21:28.928Z,16.7403
2023-05-05T07:22:30.116Z,16.8045
2023-05-05T07:23:31.265Z,16.8613
2023-05-05T07:24:32.261Z,16.8836
2023-05-05T07:25:33.399Z,16.9193
2023-05-05T07:26:34.711Z,16.9552
2023-05-05T07:27:35.811Z,16.9682
2023-05-05T07:28:36.930Z,16.9917
2023-05-05T07:29:37.833Z,17.0008
2023-05-05T07:30:38.260Z,17.0344
2023-05-05T07:31:39.547Z,17.0371
2023-05-05T07:32:39.614Z,17.0615
2023-05-05T07:33:40.761Z,17.0663
2023-05-05T07:34:41.626Z,17.0906
2023-05-05T07:35:42.597Z,17.0888
2023-05-05T07:36:43.756Z,17.1003
2023-05-05T07:37:44.718Z,17.0958
2023-05-05T07:38:44.965Z,17.0750
2023-05-05T07:39:45.939Z,17.0807
2023-05-05T07:40:46.649Z,17.0598
2023-05-05T07:41:47.811Z,17.0768
2023-05-05T07:42:48.826Z,17.1273
2023-05-05T07:43:49.951Z,17.1476
2023-05-05T07:44:50.957Z,17.2042
2023-05-05T07:45:52.133Z,17.2569
2023-05-05T07:46:52.137Z,17.2661
2023-05-05T07:47:53.249Z,17.2676
2023-05-05T07:49:54.211Z,17.2727
2023-05-05T07:50:54.619Z,17.2817
2023-05-05T07:51:55.873Z,17.2729
2023-05-05T07:53:02.525Z,17.2426
2023-05-05T07:53:56.873Z,17.2551
2023-05-05T07:54:57.074Z,17.2894
2023-05-05T07:55:58.079Z,17.3512
2023-05-05T07:56:59.023Z,17.3459
2023-05-05T07:58:00.200Z,17.3243
2023-05-05T07:59:01.299Z,17.2763
2023-05-05T08:00:02.151Z,17.2760
2023-05-05T08:01:02.226Z,17.2709
2023-05-05T08:02:03.138Z,17.2831
2023-05-05T08:03:03.878Z,17.3062
2023-05-05T08:04:04.938Z,17.3350
2023-05-05T08:05:05.060Z,17.3516
2023-05-05T08:06:04.990Z,17.3646
2023-05-05T08:07:06.102Z,17.3911
2023-05-05T08:08:06.706Z,17.4410
2023-05-05T08:09:07.624Z,17.5015
2023-05-05T08:10:08.916Z,17.5485
2023-05-05T08:11:10.037Z,17.5827
2023-05-05T08:12:10.763Z,17.5660
2023-05-05T08:13:11.071Z,17.5488
2023-05-05T08:14:12.289Z,17.5569
2023-05-05T08:15:12.588Z,17.5968
2023-05-05T08:16:12.708Z,17.6597
2023-05-05T08:17:13.845Z,17.6583
2023-05-05T08:18:14.017Z,17.6513
2023-05-05T08:19:27.566Z,17.6613
2023-05-05T08:20:14.638Z,17.6698
2023-05-05T08:21:14.744Z,17.6541
2023-05-05T08:22:15.881Z,17.6486
2023-05-05T08:23:16.010Z,17.6420
2023-05-05T08:24:17.403Z,17.6249
2023-05-05T08:25:18.667Z,17.6477
2023-05-05T08:26:18.845Z,17.6861
2023-05-05T08:27:19.812Z,17.6831
2023-05-05T08:28:19.895Z,17.6993
2023-05-05T08:29:20.913Z,17.7199
2023-05-05T08:30:20.963Z,17.7689
2023-05-05T08:31:22.211Z,17.8408
2023-05-05T08:34:23.877Z,17.8940
2023-05-05T08:35:24.301Z,17.9218
2023-05-05T08:36:25.543Z,17.9911
2023-05-05T08:37:26.558Z,18.0430
2023-05-05T08:38:27.720Z,18.0732
2023-05-05T08:39:27.998Z,18.0685
2023-05-05T08:40:28.584Z,18.0864
2023-05-05T08:41:29.640Z,18.1190
2023-05-05T08:42:36.937Z,18.1569
2023-05-05T08:43:31.931Z,18.2196
2023-05-05T08:44:33.150Z,18.2816
2023-05-05T08:45:34.059Z,18.3366
2023-05-05T08:46:35.265Z,18.3939
2023-05-05T08:47:35.496Z,18.4303
2023-05-05T08:48:35.734Z,18.5078
2023-05-05T08:50:36.732Z,18.5995
2023-05-05T08:51:37.503Z,18.6412
2023-05-05T08:52:39.080Z,18.6552
2023-05-05T08:53:40.164Z,18.6760
2023-05-05T08:54:40.221Z,18.6546
2023-05-05T08:55:40.695Z,18.6921
2023-05-05T08:56:41.984Z,18.7167
2023-05-05T08:57:43.406Z,18.7239
2023-05-05T08:58:44.386Z,18.7706
2023-05-05T08:59:44.453Z,18.8014
2023-05-05T09:00:45.735Z,18.8174
2023-05-05T09:01:45.990Z,18.8308
2023-05-05T09:02:46.242Z,18.8696
2023-05-05T09:03:47.266Z,18.8408
2023-05-05T09:04:48.556Z,18.8537
2023-05-05T09:05:49.049Z,18.7884
2023-05-05T09:06:49.131Z,18.6972
2023-05-05T09:07:50.384Z,18.6384
2023-05-05T09:08:51.676Z,18.6297
2023-05-05T09:09:51.693Z,18.6513
2023-05-05T09:10:51.997Z,18.6375
2023-05-05T09:11:53.162Z,18.7227
2023-05-05T09:12:53.251Z,18.7407
2023-05-05T09:13:53.462Z,18.7624
2023-05-05T09:14:53.402Z,18.7704
2023-05-05T09:15:53.538Z,18.8197
2023-05-05T09:16:53.547Z,18.8698
2023-05-05T09:17:53.767Z,18.8399
2023-05-05T09:18:54.982Z,18.8697
2023-05-05T09:19:55.046Z,18.9276
2023-05-05T09:20:58.143Z,18.9053
2023-05-05T09:21:56.743Z,18.9606
2023-05-05T09:22:57.976Z,18.9678
2023-05-05T09:24:04.897Z,18.9620
2023-05-05T09:24:59.700Z,18.9451
2023-05-05T09:25:59.917Z,18.9453
2023-05-05T09:27:01.356Z,19.0217
2023-05-05T09:28:01.327Z,19.0571
2023-05-05T09:29:01.418Z,19.0822
2023-05-05T09:30:02.653Z,19.0836
2023-05-05T09:31:02.736Z,19.1125
2023-05-05T09:32:02.828Z,19.1639
2023-05-05T09:33:03.559Z,19.2073
2023-05-05T09:34:04.720Z,19.2409
2023-05-05T09:35:04.730Z,19.2718
2023-05-05T09:36:04.877Z,19.3657
2023-05-05T09:37:06.370Z,19.3935
2023-05-05T09:38:07.017Z,19.3240
2023-05-05T09:39:07.280Z,19.3138
2023-05-05T09:40:07.389Z,19.3978
2023-05-05T09:41:08.637Z,19.4212
2023-05-05T09:42:09.910Z,19.4216
2023-05-05T09:43:10.073Z,19.3583
2023-05-05T09:44:10.164Z,19.3253
2023-05-05T09:45:11.342Z,19.4473
2023-05-05T09:46:11.545Z,19.5026
2023-05-05T09:47:28.989Z,19.5320
2023-05-05T09:48:17.325Z,19.5576
2023-05-05T09:49:17.453Z,19.6502
2023-05-05T09:50:17.757Z,19.7647
2023-05-05T09:51:17.843Z,19.8219
2023-05-05T09:52:17.863Z,19.8868
2023-05-05T09:53:18.177Z,19.9480
2023-05-05T09:54:18.278Z,20.0022
2023-05-05T09:55:18.650Z,19.9813
2023-05-05T09:56:19.119Z,19.9863
2023-05-05T09:57:20.404Z,20.0325
2023-05-05T09:58:20.703Z,20.0748
2023-05-05T09:59:20.629Z,20.1418
2023-05-05T10:00:21.293Z,20.2094
2023-05-05T10:01:21.266Z,20.2173
2023-05-05T10:02:21.598Z,20.2827
2023-05-05T10:03:21.722Z,20.3512
2023-05-05T10:04:21.879Z,20.3711
2023-05-05T10:05:22.110Z,20.5102
2023-05-05T10:06:22.396Z,20.5685
2023-05-05T10:07:23.685Z,20.5982
2023-05-05T10:08:23.712Z,20.5730
2023-05-05T10:09:25.323Z,20.5214
2023-05-05T10:10:26.920Z,20.5581
2023-05-05T10:11:25.865Z,20.6830
2023-05-05T10:12:27.021Z,20.6962
2023-05-05T10:13:27.361Z,20.7218
2023-05-05T10:14:28.612Z,20.7702
2023-05-05T10:15:28.899Z,20.7599
2023-05-05T10:16:29.712Z,20.8495
2023-05-05T10:17:30.282Z,20.7349
2023-05-05T10:18:30.947Z,20.7618
2023-05-05T10:19:30.873Z,20.6733
2023-05-05T10:20:31.087Z,20.7096
2023-05-05T10:21:31.140Z,20.6478
2023-05-05T10:22:31.325Z,20.6577
2023-05-05T10:23:31.464Z,20.6374
2023-05-05T10:24:31.746Z,20.6941
2023-05-05T10:27:33.220Z,20.8259
2023-05-05T10:28:33.347Z,20.8992
2023-05-05T10:29:34.827Z,20.9350
2023-05-05T10:30:35.417Z,21.0523
2023-05-05T10:31:35.551Z,21.1046
2023-05-05T10:33:42.679Z,21.0617
2023-05-05T10:34:43.809Z,21.1490
2023-05-05T10:35:45.028Z,21.1603
2023-05-05T10:36:45.333Z,21.1200
2023-05-05T10:37:45.242Z,21.0936
2023-05-05T10:38:45.304Z,21.1958
2023-05-05T10:39:46.760Z,21.2564
2023-05-05T10:40:47.625Z,21.1701
2023-05-05T10:41:48.004Z,21.2015
2023-05-05T10:42:48.004Z,21.1634
2023-05-05T10:43:48.171Z,21.1192
2023-05-05T10:44:48.286Z,21.1176
2023-05-05T10:45:49.115Z,21.1358
2023-05-05T10:46:49.663Z,21.1145
2023-05-05T10:47:50.118Z,21.0355
2023-05-05T10:48:50.744Z,21.0060
2023-05-05T10:49:50.689Z,21.0089
2023-05-05T10:50:50.823Z,21.0334
2023-05-05T10:51:51.407Z,20.9591
2023-05-05T10:52:51.683Z,20.9484
2023-05-05T10:53:52.978Z,20.9766
2023-05-05T10:54:53.418Z,20.9969
2023-05-05T10:55:53.386Z,21.0934
2023-05-05T10:56:53.820Z,21.1260
2023-05-05T10:57:53.831Z,21.1484
2023-05-05T10:59:00.141Z,21.1701
2023-05-05T10:59:55.230Z,21.1489
2023-05-05T11:00:55.503Z,21.1524
2023-05-05T11:01:56.291Z,21.1484
2023-05-05T11:02:57.236Z,21.2539
2023-05-05T11:03:57.949Z,21.3521
2023-05-05T11:04:58.233Z,21.4243
2023-05-05T11:05:58.380Z,21.4238
2023-05-05T11:06:59.649Z,21.5256
2023-05-05T11:08:00.709Z,21.5944
2023-05-05T11:09:00.821Z,21.6271
2023-05-05T11:10:01.002Z,21.6597
2023-05-05T11:11:01.860Z,21.6797
2023-05-05T11:12:02.315Z,21.7864
2023-05-05T11:13:02.750Z,21.8075
2023-05-05T11:14:03.757Z,21.8704
2023-05-05T11:15:03.919Z,21.9751
2023-05-05T11:16:04.097Z,22.0065
2023-05-05T11:17:04.681Z,21.9223
2023-05-05T11:18:07.376Z,21.9871
2023-05-05T11:19:05.063Z,22.0539
2023-05-05T11:20:05.121Z,22.1582
2023-05-05T11:21:05.481Z,22.0467
2023-05-05T11:22:05.689Z,22.0839
2023-05-05T11:23:05.886Z,22.2387
2023-05-05T11:24:06.056Z,22.3836
2023-05-05T11:25:07.249Z,22.3143
2023-05-05T11:26:07.502Z,22.4242
2023-05-05T11:27:08.921Z,22.5048
2023-05-05T11:28:09.107Z,22.6872
2023-05-05T11:29:09.272Z,22.6615
2023-05-05T11:30:10.520Z,22.6757
2023-05-05T11:31:10.709Z,22.8693
2023-05-05T11:32:11.010Z,22.8861
2023-05-05T11:33:11.141Z,22.6622
2023-05-05T11:34:12.378Z,22.8507
2023-05-05T11:35:12.497Z,22.9409
2023-05-05T11:36:13.950Z,23.2139
2023-05-05T11:37:15.285Z,23.3230
2023-05-05T11:38:15.478Z,23.3540
2023-05-05T11:39:16.763Z,23.3859
2023-05-05T11:40:17.019Z,23.3699
2023-05-05T11:41:17.071Z,23.3100
2023-05-05T11:42:18.305Z,23.2787
2023-05-05T11:43:18.530Z,23.3466
2023-05-05T11:44:18.570Z,23.5007
2023-05-05T11:45:18.693Z,23.7116
2023-05-05T11:46:19.104Z,23.7287
2023-05-05T11:47:19.596Z,23.9633
2023-05-05T11:48:20.080Z,23.9998
2023-05-05T11:49:20.637Z,23.8486
2023-05-05T11:50:20.590Z,24.0430
2023-05-05T11:51:20.714Z,23.9544
2023-05-05T11:52:20.765Z,23.7821
2023-05-05T11:53:21.050Z,23.8036
2023-05-05T11:54:21.285Z,23.8569
2023-05-05T11:55:21.369Z,23.9343
2023-05-05T11:56:22.810Z,23.7652
2023-05-05T11:57:22.895Z,23.7653
2023-05-05T11:58:23.136Z,23.8138
2023-05-05T11:59:24.423Z,23.5098
2023-05-05T12:00:24.621Z,23.4792
2023-05-05T12:01:25.915Z,23.2885
2023-05-05T12:02:26.332Z,23.2968
2023-05-05T12:03:28.138Z,23.0346
2023-05-05T12:04:28.533Z,23.1528
2023-05-05T12:05:28.916Z,23.0877
2023-05-05T12:06:29.233Z,23.0877
2023-05-05T12:07:29.370Z,23.2806
2023-05-05T12:08:29.402Z,23.3239
2023-05-05T12:09:29.503Z,23.4610
2023-05-05T12:10:30.642Z,23.5583
2023-05-05T12:11:31.966Z,23.5462
2023-05-05T12:12:32.337Z,23.9110
2023-05-05T12:13:33.246Z,24.2095
2023-05-05T12:14:34.464Z,24.2113
2023-05-05T12:15:34.676Z,24.2485
2023-05-05T12:16:34.882Z,24.3574
2023-05-05T12:17:35.533Z,24.3481
2023-05-05T12:18:36.222Z,24.3045
2023-05-05T12:19:36.337Z,24.5485
2023-05-05T12:20:37.680Z,24.5561
2023-05-05T12:21:37.860Z,24.6780
2023-05-05T12:22:38.058Z,24.6657
2023-05-05T12:23:38.616Z,24.4730
2023-05-05T12:24:38.630Z,24.4441
2023-05-05T12:25:38.864Z,24.3634
2023-05-05T12:26:38.876Z,24.2738
2023-05-05T12:27:39.285Z,24.4417
2023-05-05T12:28:39.356Z,24.7083
2023-05-05T12:29:39.623Z,24.6320
2023-05-05T12:30:40.655Z,24.5628
2023-05-05T12:31:41.095Z,24.7517
2023-05-05T12:32:41.716Z,24.7652
2023-05-05T12:33:41.942Z,25.0063
2023-05-05T12:34:42.107Z,25.2979
2023-05-05T12:35:42.100Z,24.9675
2023-05-05T12:36:42.685Z,25.4804
2023-05-05T12:37:43.914Z,25.6459
2023-05-05T12:38:44.154Z,25.6541
2023-05-05T12:39:45.634Z,25.7408
2023-05-05T12:40:46.407Z,25.4185
2023-05-05T12:41:46.537Z,25.2201
2023-05-05T12:42:46.627Z,24.9933
2023-05-05T12:43:46.822Z,25.1177
2023-05-05T12:44:46.800Z,25.3820
2023-05-05T12:45:47.135Z,25.3428
2023-05-05T12:46:47.617Z,25.4856
2023-05-05T12:47:48.059Z,25.5918
2023-05-05T12:48:48.601Z,26.0436
2023-05-05T12:49:48.941Z,26.1270
2023-05-05T12:50:50.450Z,26.5393
2023-05-05T12:51:50.516Z,26.5611
2023-05-05T12:52:50.724Z,26.3842
2023-05-05T12:53:51.753Z,26.2954
2023-05-05T12:54:52.953Z,26.4321
2023-05-05T12:55:53.277Z,26.4791
2023-05-05T12:56:53.482Z,26.8241
2023-05-05T12:57:53.666Z,27.0222
2023-05-05T12:58:53.864Z,26.9608
2023-05-05T12:59:55.174Z,27.0654
2023-05-05T13:00:55.739Z,27.1576
2023-05-05T13:01:56.202Z,27.1594